Data for 05/08/2009

Time Sea-Level Adjusted Pressure Absolute Pressure Temperature Relative Humidity Dew Point   
(mb) (inHg) (mb) (inHg) (C) (F) (%) (C) (F)
00:05 1019 30.09 849 25.07 2.3 36.2 55 -5.8 21.5
00:10 1019 30.09 849 25.07 2.2 35.9 61 -4.6 23.8
00:15 1019 30.09 849 25.07 1.9 35.4 62 -4.7 23.6
00:20 1019 30.09 849 25.07 1.7 35.1 61 -5 22.9
00:25 1019 30.09 849 25.07 1.7 35.1 62 -4.9 23.2
00:30 1019 30.09 849 25.07 1.8 35.3 58 -5.5 22.2
00:35 1019 30.09 849 25.07 2.1 35.7 57 -5.5 22.1
00:40 1019 30.09 849 25.07 2.1 35.9 56 -5.8 21.6
00:45 1019 30.09 849 25.07 2.1 35.7 56 -5.8 21.5
00:50 1020 30.12 849 25.07 2.2 36 55 -5.8 21.5
00:55 1020 30.12 849 25.07 2.2 36 54 -6.1 21
01:00 1020 30.12 849 25.07 2.2 36 56 -5.6 21.9
01:05 1020 30.12 849 25.07 2.2 36 57 -5.6 22
01:10 1020 30.12 849 25.07 2.2 35.9 56 -5.6 21.9
01:15 1020 30.12 849 25.07 2.2 35.9 57 -5.4 22.2
01:20 1020 30.12 849 25.07 2.1 35.8 57 -5.4 22.3
01:25 1019 30.09 849 25.07 2 35.7 59 -5.2 22.7
01:30 1019 30.09 849 25.07 2 35.5 59 -5.2 22.6
01:35 1019 30.09 849 25.07 1.9 35.5 59 -5.2 22.6
01:40 1020 30.12 849 25.07 1.9 35.4 59 -5.3 22.5
01:45 1020 30.12 849 25.07 1.9 35.5 59 -5.2 22.7
01:50 1020 30.12 849 25.07 2 35.6 60 -5 23
01:55 1020 30.12 849 25.07 2 35.5 62 -4.5 23.9
02:00 1020 30.12 849 25.07 1.8 35.2 61 -5 23
02:05 1020 30.12 849 25.07 1.8 35.3 58 -5.6 21.9
02:10 1020 30.12 849 25.07 2 35.6 59 -5.1 22.7
02:15 1020 30.12 849 25.07 2.1 35.7 62 -4.5 23.9
02:20 1020 30.12 849 25.07 2.1 35.7 57 -5.5 22
02:25 1020 30.12 849 25.07 2.1 35.8 58 -5.3 22.4
02:30 1020 30.12 849 25.07 2.1 35.7 59 -5.2 22.7
02:35 1020 30.12 849 25.07 2.1 35.8 59 -5.1 22.7
02:40 1020 30.12 849 25.07 2.2 35.9 59 -5.1 22.9
02:45 1020 30.12 849 25.07 2.2 36 56 -5.7 21.7
02:50 1020 30.12 849 25.07 2.3 36.1 57 -5.3 22.5
02:55 1020 30.12 849 25.07 2.2 36 61 -4.5 23.8
03:00 1020 30.12 849 25.07 2 35.5 65 -3.9 24.9
03:05 1020 30.12 849 25.07 1.9 35.5 64 -4.2 24.4
03:10 1020 30.12 849 25.07 2 35.6 63 -4.3 24.3
03:15 1020 30.12 849 25.07 2 35.5 63 -4.4 24.1
03:20 1020 30.12 849 25.07 1.8 35.3 62 -4.6 23.7
03:25 1020 30.12 849 25.07 1.8 35.2 59 -5.4 22.3
03:30 1020 30.12 849 25.07 2.1 35.7 57 -5.6 22
03:35 1020 30.12 849 25.07 2.2 35.9 57 -5.6 22
03:40 1020 30.12 849 25.07 2.1 35.8 59 -5.2 22.7
03:45 1020 30.12 849 25.07 1.9 35.5 60 -5 23
03:50 1019 30.09 849 25.07 1.9 35.4 61 -4.8 23.4
03:55 1019 30.09 849 25.07 1.9 35.4 61 -4.8 23.4
04:00 1019 30.09 849 25.07 1.9 35.3 62 -4.6 23.7
04:05 1020 30.12 849 25.07 1.8 35.2 62 -4.8 23.3
04:10 1020 30.12 849 25.07 1.8 35.3 62 -4.8 23.4
04:15 1020 30.12 849 25.07 1.9 35.4 62 -4.7 23.6
04:20 1020 30.12 849 25.07 1.8 35.3 63 -4.4 24
04:25 1020 30.12 849 25.07 1.8 35.2 59 -5.3 22.4
04:30 1020 30.12 849 25.07 2.1 35.7 59 -5.1 22.8
04:35 1020 30.12 849 25.07 2.2 36 54 -6.1 20.9
04:40 1020 30.12 849 25.07 2.3 36.1 59 -4.8 23.4
04:45 1020 30.12 849 25.07 2.2 36 54 -6.1 21
04:50 1020 30.12 849 25.07 2.5 36.5 56 -5.4 22.3
04:55 1020 30.12 849 25.07 2.4 36.3 58 -5.1 22.7
05:00 1020 30.12 849 25.07 2.2 36 59 -5 23.1
05:05 1020 30.12 849 25.07 2.2 36 59 -5 23
05:10 1020 30.12 849 25.07 2.1 35.8 58 -5.3 22.5
05:15 1020 30.12 849 25.07 2.1 35.7 60 -4.9 23.2
05:20 1020 30.12 849 25.07 2 35.6 61 -4.7 23.6
05:25 1020 30.12 849 25.07 2.1 35.7 60 -4.8 23.3
05:30 1020 30.12 849 25.07 2.1 35.8 60 -4.8 23.4
05:35 1020 30.12 849 25.07 2.2 36 61 -4.5 24
05:40 1020 30.12 849 25.07 2.2 35.9 64 -4 24.8
05:45 1020 30.12 849 25.07 2.1 35.8 64 -4 24.8
05:50 1020 30.12 850 25.1 2.2 35.9 63 -4.2 24.4
05:55 1020 30.12 850 25.1 2.1 35.8 62 -4.4 24
06:00 1021 30.15 850 25.1 2.2 36 60 -4.7 23.6
06:05 1021 30.15 850 25.1 2.2 35.9 59 -5 23
06:10 1021 30.15 850 25.1 2.2 36 58 -5.2 22.6
06:15 1021 30.15 850 25.1 2.3 36.2 57 -5.3 22.5
06:20 1021 30.15 850 25.1 2.4 36.3 59 -4.9 23.2
06:25 1021 30.15 850 25.1 2.3 36.2 60 -4.6 23.7
06:30 1021 30.15 850 25.1 2.3 36.1 63 -4.1 24.5
06:35 1021 30.15 850 25.1 2 35.5 66 -3.7 25.3
06:40 1021 30.15 850 25.1 1.8 35.2 69 -3.3 26
06:45 1021 30.15 850 25.1 1.6 34.8 72 -2.9 26.8
06:50 1021 30.15 850 25.1 1.2 34.1 74 -3 26.6
06:55 1021 30.15 850 25.1 1.2 34.1 74 -3 26.5
07:00 1021 30.15 850 25.1 1.2 34.1 74 -3 26.7
07:05 1021 30.15 850 25.1 1.2 34.2 73 -3.2 26.3
07:10 1021 30.15 850 25.1 1.2 34.2 73 -3.1 26.4
07:15 1021 30.15 851 25.13 1.3 34.3 73 -3.1 26.5
07:20 1021 30.15 851 25.13 1.6 34.8 71 -3.1 26.5
07:25 1021 30.15 851 25.13 1.6 34.9 70 -3.3 26
07:30 1022 30.18 851 25.13 1.5 34.6 73 -2.9 26.8
07:35 1022 30.18 851 25.13 1.5 34.7 74 -2.7 27.1
07:40 1022 30.18 851 25.13 1.7 35.1 73 -2.7 27.1
07:45 1022 30.18 851 25.13 1.7 35 73 -2.6 27.2
07:50 1022 30.18 851 25.13 1.5 34.6 75 -2.5 27.4
07:55 1022 30.18 851 25.13 1.4 34.5 76 -2.4 27.6
08:00 1022 30.18 851 25.13 1.4 34.6 76 -2.4 27.7
08:05 1022 30.18 851 25.13 1.5 34.8 75 -2.4 27.7
08:10 1022 30.18 851 25.13 1.4 34.5 77 -2.3 27.9
08:15 1022 30.18 851 25.13 1.3 34.3 77 -2.3 27.8
08:20 1022 30.18 851 25.13 1.3 34.3 76 -2.6 27.4
08:25 1022 30.18 851 25.13 1.6 34.8 73 -2.8 26.9
08:30 1022 30.18 851 25.13 1.8 35.2 70 -3 26.5
08:35 1022 30.18 851 25.13 1.9 35.5 71 -2.9 26.8
08:40 1022 30.18 851 25.13 2 35.6 69 -3.1 26.4
08:45 1022 30.18 851 25.13 2.3 36.1 67 -3.2 26.2
08:50 1022 30.18 851 25.13 2.3 36.2 68 -2.9 26.7
08:55 1022 30.18 851 25.13 2.6 36.6 66 -3.2 26.2
09:00 1022 30.18 851 25.13 2.7 36.8 66 -3.1 26.4
09:05 1022 30.18 852 25.16 2.6 36.6 67 -3 26.6
09:10 1022 30.18 852 25.16 2.7 36.8 65 -3.3 26.1
09:15 1022 30.18 852 25.16 2.6 36.7 64 -3.5 25.6
09:20 1022 30.18 852 25.16 2.6 36.7 63 -3.7 25.4
09:25 1022 30.18 852 25.16 2.8 37 61 -4 24.8
09:30 1022 30.18 852 25.16 2.9 37.3 62 -3.7 25.3
09:35 1023 30.21 852 25.16 3 37.5 60 -4.1 24.7
09:40 1023 30.21 852 25.16 2.9 37.2 64 -3.3 26.1
09:45 1023 30.21 852 25.16 3 37.3 62 -3.6 25.4
09:50 1023 30.21 852 25.16 2.9 37.2 63 -3.5 25.7
09:55 1023 30.21 852 25.16 3.1 37.5 62 -3.6 25.5
10:00 1023 30.21 852 25.16 3 37.4 61 -3.7 25.4
10:05 1023 30.21 852 25.16 3 37.4 62 -3.7 25.4
10:10 1023 30.21 852 25.16 3.1 37.6 60 -3.9 25
10:15 1023 30.21 852 25.16 3.4 38.1 59 -4 24.9
10:20 1023 30.21 852 25.16 3.5 38.3 56 -4.4 24.1
10:25 1023 30.21 852 25.16 3.5 38.3 56 -4.5 23.9
10:30 1023 30.21 852 25.16 3.5 38.3 56 -4.4 24.1
10:35 1023 30.21 852 25.16 3.6 38.6 57 -4.1 24.6
10:40 1023 30.21 852 25.16 4 39.3 55 -4.2 24.4
10:45 1023 30.21 852 25.16 4.3 39.8 56 -3.6 25.5
10:50 1023 30.21 852 25.16 4.2 39.6 52 -4.8 23.3
10:55 1023 30.21 852 25.16 4.5 40.1 54 -4.1 24.7
11:00 1023 30.21 852 25.16 5 41.1 51 -4.1 24.5
11:05 1023 30.21 852 25.16 5 40.9 55 -3.3 26
11:10 1023 30.21 852 25.16 5 41.1 54 -3.4 25.9
11:15 1023 30.21 852 25.16 4.9 40.9 54 -3.6 25.6
11:20 1023 30.21 852 25.16 5 41 53 -3.7 25.3
11:25 1023 30.21 852 25.16 5.3 41.5 50 -4.3 24.3
11:30 1023 30.21 852 25.16 5 41.1 51 -4.3 24.3
11:35 1023 30.21 852 25.16 5 40.9 51 -4.3 24.2
11:40 1023 30.21 852 25.16 5 41.1 51 -4.3 24.2
11:45 1023 30.21 852 25.16 5.2 41.4 51 -4.2 24.5
11:50 1023 30.21 852 25.16 5.5 41.9 50 -4.2 24.4
11:55 1023 30.21 852 25.16 5.5 41.9 50 -4.1 24.7
12:00 1023 30.21 852 25.16 5.5 42 50 -4.1 24.6
12:05 1023 30.21 852 25.16 5.7 42.3 51 -3.5 25.7
12:10 1023 30.21 852 25.16 6.1 43 51 -3.2 26.3
12:15 1023 30.21 852 25.16 6.6 43.8 48 -3.6 25.5
12:20 1023 30.21 852 25.16 6.8 44.2 47 -3.7 25.4
12:25 1023 30.21 852 25.16 6.9 44.4 51 -2.5 27.5
12:30 1023 30.21 852 25.16 7.2 44.9 55 -1.3 29.7
12:35 1023 30.21 852 25.16 8.2 46.7 43 -3.5 25.7
12:40 1023 30.21 852 25.16 7.7 45.9 47 -3 26.6
12:45 1023 30.21 852 25.16 7.2 45 46 -3.6 25.5
12:50 1023 30.21 852 25.16 7.5 45.5 44 -3.9 24.9
12:55 1023 30.21 852 25.16 7.8 46 43 -4 24.7
13:00 1023 30.21 852 25.16 8.1 46.6 41 -4.2 24.5
13:05 1023 30.21 852 25.16 8.5 47.2 42 -3.6 25.5
13:10 1023 30.21 852 25.16 8.3 47 45 -3 26.6
13:15 1023 30.21 852 25.16 8.6 47.5 40 -4.1 24.7
13:20 1023 30.21 852 25.16 8.8 47.9 39 -4.3 24.3
13:25 1023 30.21 852 25.16 8.6 47.5 42 -3.6 25.6
13:30 1023 30.21 852 25.16 9.3 48.7 39 -3.8 25.1
13:35 1023 30.21 852 25.16 9.5 49 38 -4.2 24.4
13:40 1022 30.18 852 25.16 8.9 48.1 40 -3.8 25.1
13:45 1022 30.18 852 25.16 8.6 47.5 41 -3.9 25
13:50 1022 30.18 852 25.16 9.6 49.3 38 -3.9 25
13:55 1022 30.18 852 25.16 10.4 50.8 35 -4.3 24.2
14:00 1022 30.18 852 25.16 10.3 50.5 37 -3.6 25.5
14:05 1022 30.18 852 25.16 9.8 49.6 39 -3.5 25.7
14:10 1022 30.18 852 25.16 9 48.2 41 -3.7 25.4
14:15 1022 30.18 852 25.16 8.7 47.6 42 -3.3 26
14:20 1022 30.18 852 25.16 9.8 49.6 41 -2.9 26.7
14:25 1022 30.18 852 25.16 9.8 49.6 40 -3.2 26.2
14:30 1022 30.18 851 25.13 9.3 48.7 42 -3 26.5
14:35 1022 30.18 851 25.13 8.6 47.4 43 -3.2 26.2
14:40 1022 30.18 851 25.13 9.5 49.2 38 -4.1 24.5
14:45 1022 30.18 851 25.13 10.6 51.1 39 -2.7 27.1
14:50 1022 30.18 851 25.13 9.8 49.7 40 -3.2 26.3
14:55 1022 30.18 851 25.13 10.1 50.1 40 -2.9 26.8
15:00 1022 30.18 851 25.13 10.5 50.8 39 -3 26.7
15:05 1022 30.18 851 25.13 11 51.7 38 -2.6 27.3
15:10 1022 30.18 851 25.13 10.5 50.9 40 -2.5 27.6
15:15 1022 30.18 851 25.13 9.5 49.1 42 -2.7 27.2
15:20 1022 30.18 851 25.13 9.3 48.7 43 -2.5 27.4
15:25 1022 30.18 851 25.13 9.2 48.6 44 -2.5 27.6
15:30 1022 30.18 851 25.13 9.9 49.7 42 -2.4 27.7
15:35 1022 30.18 851 25.13 9.9 49.8 41 -2.7 27.2
15:40 1022 30.18 851 25.13 10 50 44 -1.6 29.1
15:45 1022 30.18 851 25.13 9.7 49.4 43 -2.2 28
15:50 1022 30.18 851 25.13 9 48.2 48 -1.5 29.3
15:55 1022 30.18 851 25.13 9.3 48.7 44 -2.2 28
16:00 1022 30.18 851 25.13 9.1 48.4 46 -1.8 28.7
16:05 1022 30.18 851 25.13 9.6 49.3 42 -2.6 27.3
16:10 1022 30.18 851 25.13 10 50 43 -2.1 28.2
16:15 1022 30.18 851 25.13 10.2 50.3 43 -1.9 28.7
16:20 1022 30.18 851 25.13 9.8 49.7 42 -2.4 27.7
16:25 1022 30.18 851 25.13 10.1 50.3 43 -1.8 28.8
16:30 1022 30.18 851 25.13 9.8 49.6 46 -1.3 29.6
16:35 1022 30.18 851 25.13 9.8 49.6 42 -2.3 27.8
16:40 1022 30.18 851 25.13 10.2 50.3 43 -1.9 28.6
16:45 1022 30.18 851 25.13 10.5 50.8 42 -1.8 28.7
16:50 1022 30.18 851 25.13 10.4 50.7 45 -1.1 30
16:55 1022 30.18 851 25.13 10.2 50.3 41 -2.4 27.8
17:00 1022 30.18 851 25.13 9.9 49.8 43 -2 28.5
17:05 1022 30.18 851 25.13 9.2 48.6 47 -1.6 29.1
17:10 1022 30.18 851 25.13 9.4 48.9 46 -1.7 29
17:15 1022 30.18 851 25.13 9.6 49.3 44 -1.9 28.5
17:20 1022 30.18 851 25.13 9.8 49.6 44 -1.7 28.9
17:25 1022 30.18 851 25.13 9.5 49.2 45 -1.9 28.6
17:30 1022 30.18 851 25.13 9.3 48.7 44 -2.4 27.7
17:35 1022 30.18 851 25.13 9 48.3 44 -2.5 27.5
17:40 1022 30.18 851 25.13 9 48.1 45 -2.4 27.7
17:45 1022 30.18 851 25.13 9.2 48.6 44 -2.4 27.7
17:50 1022 30.18 851 25.13 9.3 48.7 44 -2.5 27.6
17:55 1022 30.18 851 25.13 9.1 48.4 44 -2.5 27.6
18:00 1022 30.18 851 25.13 9 48.1 50 -0.9 30.5
18:05 1022 30.18 851 25.13 7.3 45.2 64 0.9 33.6
18:10 1022 30.18 851 25.13 6.3 43.3 67 0.6 33.1
18:15 1022 30.18 851 25.13 5.8 42.4 70 0.7 33.2
18:20 1022 30.18 851 25.13 5.7 42.2 69 0.4 32.7
18:25 1022 30.18 851 25.13 5.4 41.8 68 0.1 32.1
18:30 1022 30.18 851 25.13 5.5 42 69 0.4 32.7
18:35 1022 30.18 851 25.13 5.7 42.3 67 0.2 32.3
18:40 1022 30.18 851 25.13 6 42.8 66 0.2 32.3
18:45 1022 30.18 851 25.13 6 42.8 70 1 33.8
18:50 1022 30.18 851 25.13 5.5 41.9 73 1 33.7
18:55 1022 30.18 851 25.13 5.4 41.7 72 0.8 33.4
19:00 1022 30.18 851 25.13 5.5 41.9 72 0.9 33.6
19:05 1022 30.18 851 25.13 5.5 42 69 0.4 32.6
19:10 1022 30.18 851 25.13 5.6 42.2 69 0.4 32.8
19:15 1022 30.18 851 25.13 5.3 41.6 73 0.9 33.6
19:20 1022 30.18 851 25.13 5.1 41.2 73 0.8 33.4
19:25 1022 30.18 851 25.13 4.9 40.8 73 0.4 32.7
19:30 1022 30.18 851 25.13 4.8 40.7 72 0.3 32.5
19:35 1022 30.18 851 25.13 4.9 40.8 73 0.4 32.8
19:40 1022 30.18 851 25.13 4.9 40.9 74 0.7 33.2
19:45 1022 30.18 851 25.13 5 41.1 74 0.8 33.5
19:50 1022 30.18 851 25.13 5.1 41.1 74 0.8 33.4
19:55 1022 30.18 852 25.16 5.1 41.2 72 0.4 32.8
20:00 1022 30.18 852 25.16 5.1 41.2 72 0.5 32.9
20:05 1022 30.18 851 25.13 5.3 41.5 71 0.6 33
20:10 1022 30.18 851 25.13 5.2 41.4 71 0.5 32.9
20:15 1022 30.18 851 25.13 5.4 41.7 67 -0.2 31.6
20:20 1022 30.18 851 25.13 5.6 42 67 -0.2 31.7
20:25 1022 30.18 851 25.13 5.6 42.2 66 -0.2 31.7
20:30 1022 30.18 851 25.13 5.7 42.2 64 -0.5 31.1
20:35 1022 30.18 851 25.13 5.7 42.3 64 -0.5 31.1
20:40 1022 30.18 851 25.13 5.7 42.3 65 -0.2 31.6
20:45 1022 30.18 851 25.13 5.5 41.9 67 -0.1 31.8
20:50 1022 30.18 852 25.16 5.3 41.5 68 -0.1 31.8
20:55 1022 30.18 852 25.16 4.9 40.8 72 0.3 32.5
21:00 1022 30.18 852 25.16 4.8 40.7 70 -0.2 31.7
21:05 1022 30.18 852 25.16 4.9 40.8 70 -0.2 31.6
21:10 1023 30.21 852 25.16 4.9 40.8 69 -0.2 31.6
21:15 1023 30.21 852 25.16 4.8 40.6 71 -0 31.9
21:20 1023 30.21 852 25.16 4.6 40.3 74 0.3 32.6
21:25 1023 30.21 852 25.16 4.5 40 75 0.4 32.8
21:30 1023 30.21 852 25.16 4.3 39.8 76 0.4 32.8
21:35 1023 30.21 852 25.16 4.2 39.6 75 0.2 32.4
21:40 1023 30.21 852 25.16 4.3 39.7 74 0.1 32.2
21:45 1023 30.21 852 25.16 4.4 39.9 72 -0.2 31.6
21:50 1023 30.21 852 25.16 4.6 40.2 73 0.1 32.2
21:55 1023 30.21 852 25.16 4.5 40 71 -0.4 31.3
22:00 1023 30.21 852 25.16 4.6 40.2 70 -0.5 31.1
22:05 1023 30.21 852 25.16 4.6 40.3 68 -0.8 30.5
22:10 1023 30.21 852 25.16 4.5 40.1 70 -0.4 31.3
22:15 1023 30.21 852 25.16 4.4 40 69 -0.7 30.7
22:20 1023 30.21 852 25.16 4.3 39.8 71 -0.5 31.1
22:25 1023 30.21 852 25.16 4.3 39.8 71 -0.5 31.1
22:30 1023 30.21 852 25.16 4.4 39.9 70 -0.7 30.8
22:35 1023 30.21 852 25.16 4.4 39.8 70 -0.6 31
22:40 1023 30.21 852 25.16 4.1 39.4 75 0.1 32.1
22:45 1023 30.21 852 25.16 3.6 38.4 76 -0.4 31.4
22:50 1023 30.21 852 25.16 3.5 38.3 73 -0.9 30.4
22:55 1023 30.21 852 25.16 3.6 38.5 72 -0.9 30.3
23:00 1023 30.21 852 25.16 3.8 38.9 71 -1 30.2
23:05 1023 30.21 852 25.16 3.8 38.9 72 -0.8 30.5
23:10 1023 30.21 852 25.16 3.7 38.6 73 -0.8 30.6
23:15 1023 30.21 852 25.16 3.6 38.4 72 -1 30.3
23:20 1023 30.21 852 25.16 3.6 38.4 71 -1.2 29.8
23:25 1023 30.21 852 25.16 3.5 38.4 71 -1.3 29.7
23:30 1023 30.21 852 25.16 3.5 38.2 73 -1 30.2
23:35 1023 30.21 852 25.16 3.5 38.3 71 -1.2 29.8
23:40 1023 30.21 852 25.16 3.5 38.2 73 -0.8 30.5
23:45 1023 30.21 852 25.16 3.4 38.1 73 -1.1 30
23:50 1023 30.21 852 25.16 3.4 38.1 72 -1.2 29.8
23:55 1023 30.21 852 25.16 3.5 38.3 71 -1.3 29.7
24:00 1023 30.21 852 25.16 3.6 38.4 70 -1.3 29.6